Time;durP1;ratioP1;P1;durP2;ratioP2;P2;SDS_P1;SDS_P2;PMS_P1;PMS_P2;Temp;Humidity;BMP_temperature;BMP_pressure;BME280_temperature;BME280_humidity;BME280_pressure;Samples;Min_cycle;Max_cycle;Signal;HPM_P1;HPM_P2
2021/05/13 00:01:26;;;;;;;8.75;4.65;;;14.10;80.00;;;;;;5057950;28;20016;-62
2021/05/13 00:03:52;;;;;;;20.98;5.43;;;14.10;79.90;;;;;;5071708;28;20056;-61
2021/05/13 00:06:18;;;;;;;17.15;5.38;;;14.10;79.90;;;;;;5056994;28;20024;-62
2021/05/13 00:08:43;;;;;;;13.68;5.07;;;14.00;79.90;;;;;;5060128;28;20032;-63
2021/05/13 00:11:10;;;;;;;9.85;4.80;;;14.00;79.90;;;;;;5053661;28;20103;-63
2021/05/13 00:13:36;;;;;;;8.05;3.88;;;14.00;79.90;;;;;;5041925;28;20090;-62
2021/05/13 00:16:03;;;;;;;9.05;4.47;;;14.00;79.90;;;;;;5062012;28;20027;-61
2021/05/13 00:18:28;;;;;;;9.65;4.40;;;14.00;80.00;;;;;;5058636;28;20079;-63
2021/05/13 00:20:54;;;;;;;15.98;4.90;;;13.90;80.00;;;;;;5064114;28;20020;-62
2021/05/13 00:23:20;;;;;;;13.48;4.53;;;13.90;80.00;;;;;;5060927;28;20075;-62
2021/05/13 00:25:47;;;;;;;10.13;4.70;;;13.90;80.00;;;;;;5060151;28;20033;-62
2021/05/13 00:28:13;;;;;;;15.65;5.13;;;13.90;80.00;;;;;;5054476;28;20017;-62
2021/05/13 00:30:39;;;;;;;9.40;4.28;;;13.90;80.00;;;;;;5058544;28;20032;-63
2021/05/13 00:33:04;;;;;;;13.25;4.55;;;13.80;80.00;;;;;;5060806;28;20048;-63
2021/05/13 00:35:30;;;;;;;8.35;3.88;;;13.80;79.90;;;;;;5061982;28;20112;-63
2021/05/13 00:37:55;;;;;;;8.68;4.15;;;13.80;79.90;;;;;;5061151;28;20124;-60
2021/05/13 00:40:21;;;;;;;11.30;4.38;;;13.80;79.90;;;;;;5059639;28;20485;-63
2021/05/13 00:42:46;;;;;;;10.52;4.15;;;13.80;80.00;;;;;;5057196;28;20056;-63
2021/05/13 00:45:13;;;;;;;12.90;4.40;;;13.80;80.00;;;;;;5039883;28;20458;-63
2021/05/13 00:47:46;;;;;;;21.15;4.85;;;13.80;80.80;;;;;;5058174;28;20052;-63
2021/05/13 00:50:12;;;;;;;8.70;4.15;;;13.70;80.10;;;;;;5054409;28;20036;-63
2021/05/13 00:52:38;;;;;;;8.07;4.18;;;13.70;80.00;;;;;;5062705;28;20390;-62
2021/05/13 00:55:04;;;;;;;8.05;4.25;;;13.70;80.00;;;;;;5056426;28;20021;-62
2021/05/13 00:57:29;;;;;;;7.50;4.20;;;13.70;80.00;;;;;;5063942;28;20036;-61
2021/05/13 01:00:00;;;;;;;9.77;4.10;;;13.70;80.00;;;;;;5058290;28;20476;-62
2021/05/13 01:02:25;;;;;;;8.70;3.72;;;13.70;80.10;;;;;;5056721;28;20399;-63
2021/05/13 01:04:51;;;;;;;15.73;4.18;;;13.70;80.20;;;;;;5043454;28;20031;-63
2021/05/13 01:07:16;;;;;;;8.80;4.15;;;13.60;80.10;;;;;;5062198;28;20029;-61
2021/05/13 01:09:42;;;;;;;8.35;3.95;;;13.60;80.20;;;;;;5057869;28;20047;-61
2021/05/13 01:12:13;;;;;;;8.18;3.85;;;13.60;80.30;;;;;;5060690;28;20024;-61
2021/05/13 01:14:44;;;;;;;6.45;3.72;;;13.60;80.30;;;;;;5058496;28;20043;-62
2021/05/13 01:19:38;;;;;;;12.50;3.80;;;13.60;80.30;;;;;;5053516;28;20053;-61
2021/05/13 01:22:03;;;;;;;9.73;3.70;;;13.60;80.30;;;;;;5059954;28;20052;-64
2021/05/13 01:24:29;;;;;;;12.35;4.28;;;13.50;80.30;;;;;;5058929;28;20167;-62
2021/05/13 01:26:54;;;;;;;11.52;4.22;;;13.60;80.30;;;;;;5042358;28;20028;-60
2021/05/13 01:29:21;;;;;;;14.30;4.55;;;13.50;80.40;;;;;;5055199;28;20107;-62
2021/05/13 01:31:47;;;;;;;12.80;4.40;;;13.50;80.40;;;;;;5055901;28;20032;-61
2021/05/13 01:34:13;;;;;;;9.38;3.85;;;13.50;80.30;;;;;;5052714;28;20184;-62
2021/05/13 01:36:38;;;;;;;8.40;4.20;;;13.50;80.50;;;;;;5055349;28;20053;-61
2021/05/13 01:39:05;;;;;;;6.80;3.92;;;13.50;80.40;;;;;;5057565;28;20107;-63
2021/05/13 01:41:31;;;;;;;7.32;3.95;;;13.50;80.50;;;;;;5054524;28;20440;-62
2021/05/13 01:43:56;;;;;;;8.15;3.83;;;13.40;80.60;;;;;;5058217;28;20020;-63
2021/05/13 01:46:22;;;;;;;9.55;3.90;;;13.40;80.60;;;;;;5057126;28;20082;-64
2021/05/13 01:48:47;;;;;;;10.10;4.10;;;13.40;80.70;;;;;;5055991;28;20028;-63
2021/05/13 01:51:13;;;;;;;7.35;3.72;;;13.40;80.80;;;;;;5054133;28;20081;-62
2021/05/13 01:53:42;;;;;;;12.10;4.05;;;13.40;80.80;;;;;;5035934;28;20056;-62
2021/05/13 01:56:08;;;;;;;8.52;3.90;;;13.30;80.90;;;;;;5057806;28;20087;-61
2021/05/13 01:58:34;;;;;;;9.57;3.42;;;13.30;80.90;;;;;;5044179;28;20056;-61
2021/05/13 02:00:59;;;;;;;11.77;4.20;;;13.30;81.00;;;;;;5054469;28;20120;-61
2021/05/13 02:03:26;;;;;;;8.32;4.00;;;13.30;81.00;;;;;;5050432;28;20262;-61
2021/05/13 02:05:52;;;;;;;10.32;4.03;;;13.30;81.00;;;;;;5058816;28;20399;-62
2021/05/13 02:08:17;;;;;;;4.97;3.40;;;13.30;81.10;;;;;;5043002;28;20031;-61
2021/05/13 02:10:43;;;;;;;6.07;3.47;;;13.30;81.20;;;;;;5053452;28;20028;-62
2021/05/13 02:13:08;;;;;;;9.00;3.80;;;13.20;81.10;;;;;;5057102;28;20098;-63
2021/05/13 02:15:34;;;;;;;8.93;3.95;;;13.20;81.20;;;;;;5059063;28;20504;-64
2021/05/13 02:17:59;;;;;;;8.93;3.60;;;13.20;81.20;;;;;;5055320;28;20453;-61
2021/05/13 02:20:25;;;;;;;13.27;3.55;;;13.20;81.20;;;;;;5054822;28;20044;-61
2021/05/13 02:22:50;;;;;;;8.20;4.40;;;13.20;81.20;;;;;;5036034;28;20427;-61
2021/05/13 02:25:16;;;;;;;6.95;4.22;;;13.20;81.30;;;;;;5052275;28;20102;-63
2021/05/13 02:27:41;;;;;;;9.10;3.90;;;13.20;82.10;;;;;;5058997;28;20165;-63
2021/05/13 02:30:08;;;;;;;6.50;4.10;;;13.20;81.50;;;;;;5055205;28;20503;-62
2021/05/13 02:32:34;;;;;;;13.35;4.25;;;13.20;81.50;;;;;;5057218;28;20521;-63
2021/05/13 02:34:59;;;;;;;7.32;3.88;;;13.20;81.60;;;;;;5058914;28;20037;-61
2021/05/13 02:37:25;;;;;;;8.35;4.20;;;13.10;81.60;;;;;;5050505;28;20031;-63
2021/05/13 02:39:50;;;;;;;8.13;4.45;;;13.10;81.60;;;;;;5055450;28;20032;-63
2021/05/13 02:42:16;;;;;;;9.18;5.10;;;13.10;82.30;;;;;;5058703;28;20051;-60
2021/05/13 02:44:42;;;;;;;8.38;4.38;;;13.10;81.70;;;;;;5061439;28;20029;-61
2021/05/13 02:47:08;;;;;;;7.57;3.95;;;13.10;81.80;;;;;;5060792;28;20039;-62
2021/05/13 02:49:34;;;;;;;9.75;4.53;;;13.10;81.80;;;;;;5053387;28;20429;-63
2021/05/13 02:51:59;;;;;;;7.88;4.38;;;13.00;81.70;;;;;;5060763;28;20077;-60
2021/05/13 02:54:25;;;;;;;7.13;4.80;;;13.00;81.70;;;;;;5060676;28;20094;-63
2021/05/13 02:56:50;;;;;;;8.20;4.75;;;13.00;81.70;;;;;;5053170;28;20039;-61
2021/05/13 02:59:17;;;;;;;10.75;4.20;;;13.00;81.80;;;;;;5056112;28;20039;-62
2021/05/13 03:01:42;;;;;;;8.70;4.32;;;13.00;81.80;;;;;;5060293;28;20427;-63
2021/05/13 03:04:08;;;;;;;11.43;4.10;;;13.00;81.80;;;;;;5054221;28;20044;-63
2021/05/13 03:06:33;;;;;;;7.28;4.13;;;12.90;81.80;;;;;;5056627;28;20112;-63
2021/05/13 03:09:00;;;;;;;7.22;3.75;;;12.90;81.80;;;;;;5057418;28;20522;-61
2021/05/13 03:11:26;;;;;;;7.90;3.90;;;12.90;81.80;;;;;;5058397;28;20089;-61
2021/05/13 03:13:54;;;;;;;7.05;3.97;;;12.90;81.80;;;;;;5058471;28;20024;-62
2021/05/13 03:16:20;;;;;;;8.50;4.00;;;12.90;81.80;;;;;;5062907;28;20028;-61
2021/05/13 03:18:50;;;;;;;9.88;3.90;;;12.80;81.80;;;;;;5041726;28;20564;-62
2021/05/13 03:21:29;;;;;;;6.18;3.60;;;12.80;81.80;;;;;;5055347;28;20585;-61
2021/05/13 03:24:10;;;;;;;6.65;3.83;;;12.80;81.80;;;;;;5058948;28;20146;-62
2021/05/13 03:29:02;;;;;;;9.40;3.95;;;12.80;81.90;;;;;;5053826;28;20029;-62
2021/05/13 03:31:27;;;;;;;6.07;4.15;;;12.80;81.90;;;;;;5053925;28;20037;-61
2021/05/13 03:33:53;;;;;;;5.22;3.67;;;12.80;82.00;;;;;;5041998;28;20032;-62
2021/05/13 03:36:18;;;;;;;5.00;3.45;;;12.70;82.00;;;;;;5055879;28;20029;-61
2021/05/13 03:38:44;;;;;;;10.25;4.10;;;12.80;82.70;;;;;;5060907;28;20492;-62
2021/05/13 03:41:09;;;;;;;7.10;3.67;;;12.70;82.00;;;;;;5059111;28;20541;-62
2021/05/13 03:43:35;;;;;;;9.07;3.90;;;12.70;82.00;;;;;;5058812;28;20039;-63
2021/05/13 03:46:00;;;;;;;8.73;3.92;;;12.70;82.10;;;;;;5061095;28;20024;-61
2021/05/13 03:48:26;;;;;;;6.25;3.80;;;12.70;82.10;;;;;;5060196;28;20258;-61
2021/05/13 03:50:51;;;;;;;6.97;3.72;;;12.70;82.10;;;;;;5051934;28;20037;-61
2021/05/13 03:53:17;;;;;;;6.93;3.95;;;12.70;82.10;;;;;;5055914;28;20127;-62
2021/05/13 03:55:46;;;;;;;6.30;3.38;;;12.70;82.10;;;;;;5063612;28;20043;-62
2021/05/13 03:58:11;;;;;;;6.65;3.97;;;12.60;82.10;;;;;;5059952;28;20039;-61
2021/05/13 04:03:08;;;;;;;5.38;3.38;;;12.60;82.20;;;;;;5062394;28;20548;-63
2021/05/13 04:05:34;;;;;;;8.25;3.80;;;12.60;82.20;;;;;;5053090;28;20115;-64
2021/05/13 04:07:59;;;;;;;6.18;3.47;;;12.60;82.20;;;;;;5060755;28;20458;-62
2021/05/13 04:10:25;;;;;;;8.95;3.50;;;12.60;82.20;;;;;;5062676;28;20025;-60
2021/05/13 04:12:54;;;;;;;122.85;15.45;;;12.60;82.20;;;;;;5064490;28;20089;-61
2021/05/13 04:15:19;;;;;;;72.45;10.80;;;12.60;82.20;;;;;;5060908;28;20033;-63
2021/05/13 04:17:45;;;;;;;52.30;8.70;;;12.60;82.20;;;;;;5062450;28;20036;-61
2021/05/13 04:20:10;;;;;;;39.22;8.10;;;12.60;82.20;;;;;;5051997;28;20052;-62
2021/05/13 04:22:36;;;;;;;42.97;8.00;;;12.60;82.20;;;;;;5062034;28;20461;-63
2021/05/13 04:25:03;;;;;;;57.50;7.70;;;12.60;82.10;;;;;;5063266;28;20039;-61
2021/05/13 04:27:28;;;;;;;41.63;7.82;;;12.60;82.10;;;;;;5047219;28;20021;-62
2021/05/13 04:29:54;;;;;;;42.65;7.78;;;12.60;82.10;;;;;;5064044;28;20431;-62
2021/05/13 04:32:19;;;;;;;62.75;9.32;;;12.60;82.40;;;;;;5055396;28;20040;-62
2021/05/13 04:34:45;;;;;;;54.10;7.10;;;12.60;82.10;;;;;;5056976;28;20083;-62
2021/05/13 04:37:10;;;;;;;43.80;6.75;;;12.60;82.10;;;;;;5060761;28;20352;-63
2021/05/13 04:39:36;;;;;;;81.65;10.43;;;12.60;82.00;;;;;;5059752;28;20025;-63
2021/05/13 04:42:01;;;;;;;146.20;17.17;;;12.70;82.20;;;;;;5064057;28;20425;-64
2021/05/13 04:44:27;;;;;;;384.20;32.15;;;12.60;82.20;;;;;;5058436;28;20365;-63
2021/05/13 04:46:59;;;;;;;239.57;22.35;;;12.70;82.30;;;;;;5044352;28;20017;-63
2021/05/13 04:49:25;;;;;;;325.73;27.48;;;12.70;82.30;;;;;;5061207;28;20028;-63
2021/05/13 04:51:50;;;;;;;274.40;22.33;;;12.60;82.20;;;;;;5060086;28;20036;-62
2021/05/13 04:54:17;;;;;;;288.40;22.95;;;12.60;82.20;;;;;;5056045;28;20107;-62
2021/05/13 04:56:43;;;;;;;335.42;26.10;;;12.70;82.20;;;;;;5051571;28;20078;-62
2021/05/13 04:59:08;;;;;;;304.00;24.52;;;12.60;82.10;;;;;;5055950;28;20024;-64
2021/05/13 05:01:34;;;;;;;249.10;19.80;;;12.70;82.20;;;;;;5061156;28;20033;-62
2021/05/13 05:04:00;;;;;;;259.67;21.15;;;12.70;82.20;;;;;;5060118;28;20025;-63
2021/05/13 05:06:25;;;;;;;437.08;35.53;;;12.70;82.10;;;;;;5061315;28;20474;-63
2021/05/13 05:08:51;;;;;;;500.00;40.17;;;12.70;82.20;;;;;;5058408;28;20492;-61
2021/05/13 05:11:19;;;;;;;353.52;32.15;;;12.70;82.20;;;;;;5053313;28;20049;-63
2021/05/13 05:13:44;;;;;;;307.55;26.52;;;12.70;82.20;;;;;;5059412;28;20607;-63
2021/05/13 05:16:10;;;;;;;267.08;24.30;;;12.70;82.10;;;;;;5056900;28;20131;-62
2021/05/13 05:18:35;;;;;;;242.85;22.25;;;12.70;82.10;;;;;;5055559;28;20051;-63
2021/05/13 05:21:01;;;;;;;255.38;22.95;;;12.70;82.10;;;;;;5056689;28;20040;-63
2021/05/13 05:23:29;;;;;;;264.70;22.60;;;12.70;82.20;;;;;;5058414;28;20385;-64
2021/05/13 05:25:56;;;;;;;230.23;19.17;;;12.70;82.30;;;;;;5060648;28;20503;-61
2021/05/13 05:28:22;;;;;;;234.50;20.30;;;12.70;82.40;;;;;;5060991;28;20036;-64
2021/05/13 05:30:47;;;;;;;193.13;19.33;;;12.70;82.30;;;;;;5059348;28;20035;-63
2021/05/13 05:33:13;;;;;;;169.57;17.77;;;12.70;82.40;;;;;;5055030;28;20259;-61
2021/05/13 05:35:38;;;;;;;177.35;17.63;;;12.70;82.50;;;;;;5051381;28;20036;-61
2021/05/13 05:38:05;;;;;;;174.35;19.50;;;12.80;82.50;;;;;;5054953;28;20037;-61
2021/05/13 05:40:31;;;;;;;207.02;17.98;;;12.80;82.40;;;;;;5056810;28;20031;-61
2021/05/13 05:42:56;;;;;;;168.50;16.35;;;12.70;82.40;;;;;;5064546;28;20025;-61
2021/05/13 05:45:22;;;;;;;163.98;16.63;;;12.70;82.50;;;;;;5059981;28;20032;-63
2021/05/13 05:47:48;;;;;;;180.00;15.10;;;12.80;82.60;;;;;;5052108;28;20436;-63
2021/05/13 05:50:14;;;;;;;143.48;15.50;;;12.80;82.40;;;;;;5057009;28;20210;-62
2021/05/13 05:52:40;;;;;;;120.13;15.93;;;12.80;82.30;;;;;;5059836;28;20028;-62
2021/05/13 05:55:06;;;;;;;142.07;15.80;;;12.80;82.50;;;;;;5050526;28;20076;-61
2021/05/13 05:57:32;;;;;;;126.78;14.52;;;12.90;82.70;;;;;;5055505;28;20796;-62
2021/05/13 06:00:01;;;;;;;118.35;15.27;;;12.90;82.40;;;;;;5057281;28;20127;-63
2021/05/13 06:02:27;;;;;;;121.57;14.63;;;12.80;82.70;;;;;;5053054;28;20044;-61
2021/05/13 06:04:52;;;;;;;123.18;14.50;;;12.90;82.40;;;;;;5055584;28;20070;-63
2021/05/13 06:07:22;;;;;;;111.90;13.07;;;12.90;82.20;;;;;;5058268;28;20034;-63
2021/05/13 06:09:47;;;;;;;142.05;14.82;;;12.80;82.40;;;;;;5054772;28;20124;-62
2021/05/13 06:12:13;;;;;;;113.43;13.75;;;12.80;82.40;;;;;;5060646;28;20153;-62
2021/05/13 06:14:39;;;;;;;120.07;14.75;;;13.00;82.50;;;;;;5058953;28;20258;-64
2021/05/13 06:17:04;;;;;;;108.65;13.90;;;12.90;82.40;;;;;;5059436;28;20045;-61
2021/05/13 06:19:30;;;;;;;154.95;14.60;;;13.00;82.70;;;;;;5057337;28;20076;-61
2021/05/13 06:21:55;;;;;;;108.70;13.77;;;13.00;83.00;;;;;;5062546;28;20037;-62
2021/05/13 06:24:21;;;;;;;93.68;12.45;;;13.00;82.80;;;;;;5061829;28;20020;-62
2021/05/13 06:26:57;;;;;;;90.57;12.18;;;13.00;82.50;;;;;;5061340;28;20032;-61
2021/05/13 06:29:23;;;;;;;104.20;13.30;;;13.00;82.40;;;;;;5053396;28;20086;-63
2021/05/13 06:31:48;;;;;;;96.47;11.20;;;13.00;82.30;;;;;;5061405;28;20099;-63
2021/05/13 06:34:14;;;;;;;87.22;11.25;;;13.10;82.30;;;;;;5052984;28;20021;-61
2021/05/13 06:36:39;;;;;;;75.68;11.30;;;13.00;82.20;;;;;;5050119;28;20412;-61
2021/05/13 06:39:05;;;;;;;83.63;11.80;;;13.10;82.20;;;;;;5059604;28;20030;-62
2021/05/13 06:41:31;;;;;;;78.30;11.88;;;13.10;82.20;;;;;;5045721;28;20056;-63
2021/05/13 06:43:57;;;;;;;99.93;13.88;;;13.10;82.20;;;;;;5050247;28;20132;-62
2021/05/13 06:46:23;;;;;;;98.20;12.68;;;13.10;82.20;;;;;;5058534;28;20028;-63
2021/05/13 06:48:48;;;;;;;95.65;11.73;;;13.10;82.10;;;;;;5059268;28;20376;-63
2021/05/13 06:51:14;;;;;;;81.60;11.07;;;13.10;82.10;;;;;;5059873;28;20029;-61
2021/05/13 06:53:39;;;;;;;70.25;11.77;;;13.10;82.00;;;;;;5054833;28;20037;-63
2021/05/13 06:56:05;;;;;;;68.63;11.63;;;13.10;82.00;;;;;;5058826;28;20081;-63
2021/05/13 06:58:30;;;;;;;68.18;12.20;;;13.10;82.00;;;;;;5060668;28;20024;-63
2021/05/13 07:00:56;;;;;;;71.20;11.30;;;13.20;82.10;;;;;;5063277;28;20115;-61
2021/05/13 07:03:21;;;;;;;62.63;10.02;;;13.20;82.00;;;;;;5056909;28;20559;-62
2021/05/13 07:05:47;;;;;;;51.47;8.70;;;13.20;82.50;;;;;;5059035;28;20025;-62
2021/05/13 07:08:13;;;;;;;61.90;9.45;;;13.20;82.90;;;;;;5053727;28;20029;-61
2021/05/13 07:10:38;;;;;;;40.35;7.75;;;13.20;83.10;;;;;;5054863;28;20078;-64
2021/05/13 07:13:04;;;;;;;37.95;7.28;;;13.20;83.50;;;;;;5054991;28;20031;-63
2021/05/13 07:15:31;;;;;;;46.17;7.78;;;13.20;83.60;;;;;;5056639;28;21575;-61
2021/05/13 07:17:56;;;;;;;33.55;6.80;;;13.10;83.90;;;;;;5056501;28;20874;-63
2021/05/13 07:20:22;;;;;;;27.10;7.30;;;13.10;83.80;;;;;;5054277;28;20123;-61
2021/05/13 07:22:49;;;;;;;30.52;6.32;;;13.10;84.00;;;;;;5050754;28;20559;-62
2021/05/13 07:25:15;;;;;;;21.00;5.57;;;13.10;84.30;;;;;;5053470;28;20020;-63
2021/05/13 07:27:40;;;;;;;13.70;4.85;;;13.10;84.50;;;;;;5053716;28;20025;-63
2021/05/13 07:30:06;;;;;;;17.35;4.30;;;13.10;84.60;;;;;;5055582;28;20821;-62
2021/05/13 07:32:32;;;;;;;14.60;5.07;;;13.10;84.80;;;;;;5057266;28;20116;-63
2021/05/13 07:34:57;;;;;;;15.32;5.25;;;13.10;85.10;;;;;;5060835;28;20112;-63
2021/05/13 07:37:25;;;;;;;14.00;4.78;;;13.10;85.30;;;;;;5059358;28;20029;-61
2021/05/13 07:39:50;;;;;;;13.13;4.15;;;13.10;85.40;;;;;;5055662;28;20040;-62
2021/05/13 07:42:16;;;;;;;10.70;4.40;;;13.30;85.60;;;;;;5053114;28;20041;-61
2021/05/13 07:44:41;;;;;;;7.20;3.83;;;13.20;85.60;;;;;;5052802;28;20020;-60
2021/05/13 07:47:09;;;;;;;12.10;3.72;;;13.20;85.80;;;;;;5055218;28;20575;-62
2021/05/13 07:49:34;;;;;;;8.20;4.03;;;13.20;85.30;;;;;;5058150;28;20033;-63
2021/05/13 07:52:00;;;;;;;10.40;4.15;;;13.30;85.80;;;;;;5062106;28;20066;-64
2021/05/13 07:54:26;;;;;;;6.50;3.85;;;13.20;85.40;;;;;;5058910;28;20407;-64
2021/05/13 07:56:51;;;;;;;7.35;3.65;;;13.30;85.30;;;;;;5042419;28;20025;-62
2021/05/13 07:59:17;;;;;;;5.55;4.00;;;13.30;85.50;;;;;;5052042;28;20037;-62
2021/05/13 08:01:42;;;;;;;11.05;3.70;;;13.30;85.30;;;;;;5057481;28;20116;-61
2021/05/13 08:04:08;;;;;;;8.68;4.10;;;13.40;84.90;;;;;;5057756;28;20032;-63
2021/05/13 08:06:33;;;;;;;6.10;3.08;;;13.40;84.80;;;;;;5058327;28;20101;-62
2021/05/13 08:08:59;;;;;;;5.53;3.92;;;13.50;84.60;;;;;;5054608;28;20063;-63
2021/05/13 08:11:24;;;;;;;9.27;4.00;;;13.50;84.40;;;;;;5058350;28;20028;-62
2021/05/13 08:13:50;;;;;;;9.02;3.47;;;13.50;84.40;;;;;;5048687;28;20052;-61
2021/05/13 08:16:15;;;;;;;7.35;3.63;;;13.60;84.30;;;;;;5054697;28;20044;-61
2021/05/13 08:18:41;;;;;;;16.05;4.15;;;13.70;84.30;;;;;;5044206;28;20055;-62
2021/05/13 08:21:07;;;;;;;12.23;3.88;;;13.70;84.30;;;;;;5043437;28;20024;-62
2021/05/13 08:23:32;;;;;;;9.75;3.75;;;13.70;84.00;;;;;;5043003;28;20780;-63
2021/05/13 08:25:58;;;;;;;16.98;3.78;;;13.80;83.70;;;;;;5058639;28;20395;-63
2021/05/13 08:28:23;;;;;;;14.63;3.15;;;13.90;84.00;;;;;;5056167;28;20036;-64
2021/05/13 08:30:49;;;;;;;12.45;3.83;;;13.90;83.40;;;;;;5046061;28;20094;-63
2021/05/13 08:33:15;;;;;;;19.95;3.92;;;13.90;83.20;;;;;;5058010;28;20518;-60
2021/05/13 08:35:40;;;;;;;39.97;5.95;;;14.00;83.80;;;;;;5053547;28;20119;-61
2021/05/13 08:38:06;;;;;;;37.10;5.13;;;14.10;83.50;;;;;;5060912;28;20040;-62
2021/05/13 08:40:32;;;;;;;29.40;5.13;;;14.10;83.40;;;;;;5054371;28;20045;-63
2021/05/13 08:42:58;;;;;;;42.47;7.18;;;14.20;83.70;;;;;;5063219;28;20077;-63
2021/05/13 08:45:24;;;;;;;44.05;5.25;;;14.30;83.40;;;;;;5063839;28;20021;-62
2021/05/13 08:47:50;;;;;;;43.35;6.25;;;14.40;83.60;;;;;;5039627;28;20036;-63
2021/05/13 08:50:17;;;;;;;54.45;6.60;;;14.50;83.50;;;;;;5054861;28;20021;-62
2021/05/13 08:52:42;;;;;;;31.10;5.28;;;14.50;83.60;;;;;;5057677;28;20036;-61
2021/05/13 08:55:08;;;;;;;39.50;6.70;;;14.60;83.60;;;;;;5060924;28;20387;-64
2021/05/13 08:57:34;;;;;;;45.30;6.25;;;14.70;83.10;;;;;;5051699;28;20025;-62
2021/05/13 08:59:59;;;;;;;51.42;5.75;;;14.70;83.00;;;;;;5062008;28;20631;-62
2021/05/13 09:02:27;;;;;;;47.63;5.97;;;14.80;82.80;;;;;;5062218;28;20024;-63
2021/05/13 09:04:54;;;;;;;76.25;6.32;;;14.80;82.40;;;;;;5057936;28;20082;-64
2021/05/13 09:07:29;;;;;;;62.20;6.32;;;14.90;82.10;;;;;;5061364;28;20045;-60
2021/05/13 09:09:55;;;;;;;;;;;14.90;81.80;;;;;;5062847;28;20111;-63
2021/05/13 09:12:21;;;;;;;93.90;10.53;;;15.00;81.90;;;;;;5057498;28;20004;-61
2021/05/13 09:14:58;;;;;;;91.82;8.25;;;15.00;81.80;;;;;;5039159;28;20689;-61
2021/05/13 09:17:25;;;;;;;101.80;9.88;;;15.00;81.30;;;;;;5057937;28;20076;-62
2021/05/13 09:19:50;;;;;;;153.10;14.90;;;15.10;81.40;;;;;;5051094;28;20044;-63
2021/05/13 09:22:23;;;;;;;68.25;8.68;;;15.10;81.30;;;;;;5058862;28;20021;-63
2021/05/13 09:24:59;;;;;;;126.82;13.50;;;15.10;81.10;;;;;;5057980;28;20509;-62
2021/05/13 09:27:36;;;;;;;74.97;7.72;;;15.20;81.00;;;;;;5061375;28;20083;-62
2021/05/13 09:30:09;;;;;;;61.75;8.27;;;15.20;81.00;;;;;;5057740;28;20036;-63
2021/05/13 09:32:35;;;;;;;76.75;8.40;;;15.30;80.60;;;;;;5059081;28;20047;-61
2021/05/13 09:35:15;;;;;;;70.22;8.57;;;15.30;80.20;;;;;;5058145;28;20049;-63
2021/05/13 09:37:40;;;;;;;91.78;9.68;;;15.40;80.20;;;;;;5060480;28;20036;-62
2021/05/13 09:40:07;;;;;;;103.28;8.95;;;15.40;79.90;;;;;;5063013;28;20078;-62
2021/05/13 09:42:32;;;;;;;90.25;9.98;;;15.40;79.80;;;;;;5044681;28;20044;-62
2021/05/13 09:44:58;;;;;;;80.63;7.78;;;15.50;79.70;;;;;;5058674;28;20135;-62
2021/05/13 09:47:28;;;;;;;70.60;7.35;;;15.50;79.50;;;;;;5051258;28;20082;-62
2021/05/13 09:49:57;;;;;;;46.33;6.50;;;15.60;79.50;;;;;;5045085;28;20075;-62
2021/05/13 09:52:39;;;;;;;82.70;7.00;;;15.60;79.30;;;;;;5056227;28;20120;-61
2021/05/13 09:55:16;;;;;;;37.70;4.55;;;15.60;79.10;;;;;;5059595;28;20097;-62
2021/05/13 09:57:48;;;;;;;31.42;4.20;;;15.60;78.70;;;;;;5060826;28;20111;-63
2021/05/13 10:00:29;;;;;;;32.05;3.72;;;15.60;78.40;;;;;;5060614;28;20553;-60
2021/05/13 10:02:55;;;;;;;43.67;4.00;;;15.50;78.30;;;;;;5058501;28;20101;-63
2021/05/13 10:05:21;;;;;;;40.28;3.95;;;15.50;78.30;;;;;;5062581;28;20116;-63
2021/05/13 10:07:46;;;;;;;37.17;3.72;;;15.40;78.40;;;;;;5052720;28;20486;-62
2021/05/13 10:10:12;;;;;;;31.08;2.95;;;15.30;78.30;;;;;;5061378;28;20490;-63
2021/05/13 10:12:37;;;;;;;41.83;5.35;;;15.30;79.00;;;;;;5053634;28;20618;-60
2021/05/13 10:15:03;;;;;;;43.58;3.28;;;15.20;78.30;;;;;;5041343;28;20122;-63
2021/05/13 10:17:29;;;;;;;31.10;3.83;;;15.20;78.50;;;;;;5054847;28;20052;-61
2021/05/13 10:19:55;;;;;;;36.67;2.88;;;15.10;78.60;;;;;;5043084;28;20093;-62
2021/05/13 10:22:20;;;;;;;60.92;5.70;;;15.10;79.00;;;;;;5058252;28;20498;-60
2021/05/13 10:24:46;;;;;;;60.55;5.07;;;15.10;79.70;;;;;;5050926;28;20041;-60
2021/05/13 10:27:16;;;;;;;40.42;4.63;;;15.20;80.10;;;;;;5052495;28;20032;-59
2021/05/13 10:29:42;;;;;;;156.63;12.57;;;15.20;80.60;;;;;;5062822;28;20054;-64
2021/05/13 10:32:20;;;;;;;54.90;6.25;;;15.20;80.90;;;;;;5061897;28;20020;-62
2021/05/13 10:34:53;;;;;;;52.72;5.47;;;15.20;81.00;;;;;;5060070;28;20017;-60
2021/05/13 10:37:34;;;;;;;45.05;5.30;;;15.20;81.50;;;;;;5055058;28;20040;-60
2021/05/13 10:42:32;;;;;;;65.55;5.85;;;15.20;81.90;;;;;;5052756;28;20590;-60
2021/05/13 10:44:58;;;;;;;64.60;7.55;;;15.20;82.50;;;;;;5060668;28;20024;-60
2021/05/13 10:47:28;;;;;;;69.72;6.57;;;15.20;82.50;;;;;;5057143;28;20028;-60
2021/05/13 10:49:54;;;;;;;85.00;8.07;;;15.20;82.40;;;;;;5055043;28;20484;-58
2021/05/13 10:52:49;;;;;;;55.85;6.40;;;15.20;82.40;;;;;;5052075;28;20016;-60
2021/05/13 10:55:15;;;;;;;76.00;6.72;;;15.20;82.40;;;;;;5044361;28;20074;-60
2021/05/13 10:57:48;;;;;;;75.75;7.75;;;15.20;82.40;;;;;;5039234;28;20051;-60
2021/05/13 11:00:17;;;;;;;67.07;7.32;;;15.20;82.70;;;;;;5054367;28;20040;-60
2021/05/13 11:02:44;;;;;;;98.90;7.97;;;15.20;82.90;;;;;;5052687;28;20032;-60
2021/05/13 11:05:33;;;;;;;51.45;6.32;;;15.20;83.00;;;;;;5057082;28;20044;-63
2021/05/13 11:08:08;;;;;;;89.50;10.25;;;15.20;83.50;;;;;;5055391;28;20043;-61
2021/05/13 11:10:52;;;;;;;77.78;7.65;;;15.20;83.70;;;;;;5051856;28;20515;-61
2021/05/13 11:13:17;;;;;;;65.60;7.15;;;15.20;83.60;;;;;;5051086;28;20116;-60
2021/05/13 11:15:46;;;;;;;68.20;7.00;;;15.20;83.50;;;;;;5048488;28;20123;-61
2021/05/13 11:18:16;;;;;;;93.90;8.13;;;15.20;83.70;;;;;;5046410;28;20032;-61
2021/05/13 11:20:44;;;;;;;89.53;8.52;;;15.30;84.00;;;;;;5043897;28;20044;-61
2021/05/13 11:23:17;;;;;;;94.28;9.52;;;15.30;83.90;;;;;;5049654;28;20141;-61
2021/05/13 11:25:47;;;;;;;83.95;8.80;;;15.30;83.70;;;;;;5055534;28;20035;-61
2021/05/13 11:28:34;;;;;;;124.20;10.82;;;15.30;83.80;;;;;;5034710;28;20440;-61
2021/05/13 11:31:09;;;;;;;111.43;11.32;;;15.40;83.70;;;;;;5051291;28;20438;-61
2021/05/13 11:33:45;;;;;;;99.47;9.55;;;15.40;83.60;;;;;;5060345;28;20040;-60
2021/05/13 11:36:12;;;;;;;101.07;12.05;;;15.40;83.30;;;;;;5057788;28;20028;-61
2021/05/13 11:38:37;;;;;;;96.07;11.25;;;15.40;83.40;;;;;;5053491;28;20025;-61
2021/05/13 11:41:03;;;;;;;110.75;11.82;;;15.40;83.60;;;;;;5059920;28;20102;-61
2021/05/13 11:43:33;;;;;;;86.53;9.20;;;15.40;83.30;;;;;;5051150;28;20420;-61
2021/05/13 11:46:00;;;;;;;112.90;10.38;;;15.40;83.10;;;;;;5041440;28;20032;-61
2021/05/13 11:48:30;;;;;;;96.95;10.02;;;15.40;83.30;;;;;;5059315;28;20051;-60
2021/05/13 11:51:03;;;;;;;81.95;9.20;;;15.40;83.40;;;;;;5055076;28;20510;-61
2021/05/13 11:53:29;;;;;;;130.52;12.50;;;15.40;83.80;;;;;;5050498;28;20024;-61
2021/05/13 11:55:55;;;;;;;102.63;10.70;;;15.40;83.20;;;;;;5049238;28;20036;-60
2021/05/13 11:58:43;;;;;;;106.90;10.27;;;15.40;83.50;;;;;;5067697;28;20036;-61
2021/05/13 12:01:34;;;;;;;83.50;9.45;;;15.40;83.20;;;;;;5062716;28;20097;-61
2021/05/13 12:04:03;;;;;;;89.05;9.95;;;15.40;82.80;;;;;;5041787;28;20048;-61
2021/05/13 12:06:39;;;;;;;78.07;9.05;;;15.50;82.90;;;;;;5049610;28;20024;-61
2021/05/13 12:09:04;;;;;;;76.38;8.98;;;15.40;82.80;;;;;;5051947;28;20029;-61
2021/05/13 12:11:30;;;;;;;66.35;9.32;;;15.40;82.50;;;;;;5047855;28;20036;-61
2021/05/13 12:13:59;;;;;;;72.00;8.45;;;15.40;82.50;;;;;;5038416;28;20043;-60
2021/05/13 12:16:28;;;;;;;104.60;10.40;;;15.40;82.40;;;;;;5047284;28;20385;-61
2021/05/13 12:18:56;;;;;;;85.80;9.45;;;15.40;82.40;;;;;;5055321;28;20037;-61
2021/05/13 12:21:21;;;;;;;79.30;8.48;;;15.40;82.20;;;;;;5042524;28;20029;-60
2021/05/13 12:23:48;;;;;;;83.55;9.63;;;15.40;82.00;;;;;;5057512;28;20503;-61
2021/05/13 12:26:22;;;;;;;80.45;9.23;;;15.40;82.40;;;;;;5054109;28;20031;-61
2021/05/13 12:28:48;;;;;;;89.25;11.20;;;15.50;82.40;;;;;;5058861;28;20434;-61
2021/05/13 12:31:24;;;;;;;83.32;9.40;;;15.50;82.40;;;;;;5053440;28;20051;-61
2021/05/13 12:33:50;;;;;;;114.07;11.50;;;15.50;82.40;;;;;;5045023;28;20350;-61
2021/05/13 12:36:15;;;;;;;100.97;9.45;;;15.50;82.40;;;;;;5059253;28;20117;-61
2021/05/13 12:38:42;;;;;;;87.43;10.50;;;15.50;82.40;;;;;;5038792;28;20036;-60
2021/05/13 12:41:19;;;;;;;86.32;9.80;;;15.60;82.50;;;;;;5062427;28;20032;-61
2021/05/13 12:43:47;;;;;;;106.32;10.63;;;15.60;82.30;;;;;;5042336;28;20092;-60
2021/05/13 12:46:25;;;;;;;118.97;11.02;;;15.60;82.00;;;;;;5055800;28;20017;-60